sensor_id;sensor_type;location;lat;lon;timestamp;temperature;humidity
25949;DHT22;13961;51.178;4.448;2022-12-07T00:01:13;6.70;99.90
25949;DHT22;13961;51.178;4.448;2022-12-07T00:03:41;6.70;99.90
25949;DHT22;13961;51.178;4.448;2022-12-07T00:06:09;6.70;99.90
25949;DHT22;13961;51.178;4.448;2022-12-07T00:08:37;6.60;99.90
25949;DHT22;13961;51.178;4.448;2022-12-07T00:11:04;6.50;99.90
25949;DHT22;13961;51.178;4.448;2022-12-07T00:13:31;6.40;99.90
25949;DHT22;13961;51.178;4.448;2022-12-07T00:16:08;6.40;99.90
25949;DHT22;13961;51.178;4.448;2022-12-07T00:18:35;6.20;99.90
25949;DHT22;13961;51.178;4.448;2022-12-07T00:21:06;6.60;99.90
25949;DHT22;13961;51.178;4.448;2022-12-07T00:23:33;6.30;99.90
25949;DHT22;13961;51.178;4.448;2022-12-07T00:26:07;6.40;99.90
25949;DHT22;13961;51.178;4.448;2022-12-07T00:28:34;6.60;99.90
25949;DHT22;13961;51.178;4.448;2022-12-07T00:31:09;6.40;99.90
25949;DHT22;13961;51.178;4.448;2022-12-07T00:33:37;6.70;99.90
25949;DHT22;13961;51.178;4.448;2022-12-07T00:36:06;6.50;99.90
25949;DHT22;13961;51.178;4.448;2022-12-07T00:38:35;6.50;99.90
25949;DHT22;13961;51.178;4.448;2022-12-07T00:41:03;6.40;99.90
25949;DHT22;13961;51.178;4.448;2022-12-07T00:43:30;6.50;99.90
25949;DHT22;13961;51.178;4.448;2022-12-07T00:45:57;6.40;99.90
25949;DHT22;13961;51.178;4.448;2022-12-07T00:48:23;6.40;99.90
25949;DHT22;13961;51.178;4.448;2022-12-07T00:50:51;6.50;99.90
25949;DHT22;13961;51.178;4.448;2022-12-07T00:53:17;6.60;99.90
25949;DHT22;13961;51.178;4.448;2022-12-07T00:55:44;6.70;99.90
25949;DHT22;13961;51.178;4.448;2022-12-07T00:58:10;6.70;99.90
25949;DHT22;13961;51.178;4.448;2022-12-07T01:00:38;6.80;99.90
25949;DHT22;13961;51.178;4.448;2022-12-07T01:03:05;6.70;99.90
25949;DHT22;13961;51.178;4.448;2022-12-07T01:05:32;6.50;99.90
25949;DHT22;13961;51.178;4.448;2022-12-07T01:07:57;6.50;99.90
25949;DHT22;13961;51.178;4.448;2022-12-07T01:10:25;6.40;99.90
25949;DHT22;13961;51.178;4.448;2022-12-07T01:12:50;6.70;99.90
25949;DHT22;13961;51.178;4.448;2022-12-07T01:15:17;6.60;99.90
25949;DHT22;13961;51.178;4.448;2022-12-07T01:17:43;6.40;99.90
25949;DHT22;13961;51.178;4.448;2022-12-07T01:20:12;6.60;99.90
25949;DHT22;13961;51.178;4.448;2022-12-07T01:22:41;6.60;99.90
25949;DHT22;13961;51.178;4.448;2022-12-07T01:25:09;6.60;99.90
25949;DHT22;13961;51.178;4.448;2022-12-07T01:27:36;6.80;99.90
25949;DHT22;13961;51.178;4.448;2022-12-07T01:30:04;6.50;99.90
25949;DHT22;13961;51.178;4.448;2022-12-07T01:32:29;6.40;99.90
25949;DHT22;13961;51.178;4.448;2022-12-07T01:34:55;6.50;99.90
25949;DHT22;13961;51.178;4.448;2022-12-07T01:37:21;6.60;99.90
25949;DHT22;13961;51.178;4.448;2022-12-07T01:39:52;6.50;99.90
25949;DHT22;13961;51.178;4.448;2022-12-07T01:42:18;6.50;99.90
25949;DHT22;13961;51.178;4.448;2022-12-07T01:47:49;6.40;99.90
25949;DHT22;13961;51.178;4.448;2022-12-07T01:50:17;6.30;99.90
25949;DHT22;13961;51.178;4.448;2022-12-07T01:52:44;6.40;99.90
25949;DHT22;13961;51.178;4.448;2022-12-07T01:55:14;6.40;99.90
25949;DHT22;13961;51.178;4.448;2022-12-07T01:57:45;6.50;99.90
25949;DHT22;13961;51.178;4.448;2022-12-07T02:00:11;6.20;99.90
25949;DHT22;13961;51.178;4.448;2022-12-07T02:05:20;6.10;99.90
25949;DHT22;13961;51.178;4.448;2022-12-07T02:07:48;6.00;99.90
25949;DHT22;13961;51.178;4.448;2022-12-07T02:10:25;6.30;99.90
25949;DHT22;13961;51.178;4.448;2022-12-07T02:13:04;6.30;99.90
25949;DHT22;13961;51.178;4.448;2022-12-07T02:15:45;6.30;99.90
25949;DHT22;13961;51.178;4.448;2022-12-07T02:18:22;6.40;99.90
25949;DHT22;13961;51.178;4.448;2022-12-07T02:20:57;6.40;99.90
25949;DHT22;13961;51.178;4.448;2022-12-07T02:29:24;6.50;99.90
25949;DHT22;13961;51.178;4.448;2022-12-07T02:32:06;6.40;99.90
25949;DHT22;13961;51.178;4.448;2022-12-07T02:34:48;6.40;99.90
25949;DHT22;13961;51.178;4.448;2022-12-07T02:37:32;6.50;99.90
25949;DHT22;13961;51.178;4.448;2022-12-07T02:43:00;6.70;99.90
25949;DHT22;13961;51.178;4.448;2022-12-07T02:45:27;6.70;99.90
25949;DHT22;13961;51.178;4.448;2022-12-07T02:47:56;6.70;99.90
25949;DHT22;13961;51.178;4.448;2022-12-07T02:50:24;6.70;99.90
25949;DHT22;13961;51.178;4.448;2022-12-07T02:52:51;6.50;99.90
25949;DHT22;13961;51.178;4.448;2022-12-07T02:55:21;6.80;99.90
25949;DHT22;13961;51.178;4.448;2022-12-07T02:58:11;6.70;99.90
25949;DHT22;13961;51.178;4.448;2022-12-07T03:03:31;6.80;99.90
25949;DHT22;13961;51.178;4.448;2022-12-07T03:06:10;6.80;99.90
25949;DHT22;13961;51.178;4.448;2022-12-07T03:08:51;6.70;99.90
25949;DHT22;13961;51.178;4.448;2022-12-07T03:11:28;6.70;99.90
25949;DHT22;13961;51.178;4.448;2022-12-07T03:14:10;6.80;99.90
25949;DHT22;13961;51.178;4.448;2022-12-07T03:17:13;6.70;99.90
25949;DHT22;13961;51.178;4.448;2022-12-07T03:19:43;6.60;99.90
25949;DHT22;13961;51.178;4.448;2022-12-07T03:22:11;6.80;99.90
25949;DHT22;13961;51.178;4.448;2022-12-07T03:27:16;6.50;99.90
25949;DHT22;13961;51.178;4.448;2022-12-07T03:29:54;6.80;99.90
25949;DHT22;13961;51.178;4.448;2022-12-07T03:32:30;6.50;99.90
25949;DHT22;13961;51.178;4.448;2022-12-07T03:35:01;6.50;99.90
25949;DHT22;13961;51.178;4.448;2022-12-07T03:37:33;6.50;99.90
25949;DHT22;13961;51.178;4.448;2022-12-07T03:42:34;6.10;99.90
25949;DHT22;13961;51.178;4.448;2022-12-07T03:45:02;6.10;99.90
25949;DHT22;13961;51.178;4.448;2022-12-07T03:47:36;6.10;99.90
25949;DHT22;13961;51.178;4.448;2022-12-07T03:50:13;6.20;99.90
25949;DHT22;13961;51.178;4.448;2022-12-07T03:55:34;6.30;99.90
25949;DHT22;13961;51.178;4.448;2022-12-07T03:58:07;6.20;99.90
25949;DHT22;13961;51.178;4.448;2022-12-07T04:00:35;5.80;99.90
25949;DHT22;13961;51.178;4.448;2022-12-07T04:03:01;5.90;99.90
25949;DHT22;13961;51.178;4.448;2022-12-07T04:05:27;6.00;99.90
25949;DHT22;13961;51.178;4.448;2022-12-07T04:07:53;6.10;99.90
25949;DHT22;13961;51.178;4.448;2022-12-07T04:10:19;6.00;99.90
25949;DHT22;13961;51.178;4.448;2022-12-07T04:12:48;6.30;99.90
25949;DHT22;13961;51.178;4.448;2022-12-07T04:15:14;6.40;99.90
25949;DHT22;13961;51.178;4.448;2022-12-07T04:17:42;6.00;99.90
25949;DHT22;13961;51.178;4.448;2022-12-07T04:20:11;6.30;99.90
25949;DHT22;13961;51.178;4.448;2022-12-07T04:22:39;5.90;99.90
25949;DHT22;13961;51.178;4.448;2022-12-07T04:25:06;6.20;99.90
25949;DHT22;13961;51.178;4.448;2022-12-07T04:27:35;6.10;99.90
25949;DHT22;13961;51.178;4.448;2022-12-07T04:30:04;6.20;99.90
25949;DHT22;13961;51.178;4.448;2022-12-07T04:32:30;6.20;99.90
25949;DHT22;13961;51.178;4.448;2022-12-07T04:34:57;6.40;99.90
25949;DHT22;13961;51.178;4.448;2022-12-07T04:37:23;6.60;99.90
25949;DHT22;13961;51.178;4.448;2022-12-07T04:39:49;6.50;99.90
25949;DHT22;13961;51.178;4.448;2022-12-07T04:42:37;6.20;99.90
25949;DHT22;13961;51.178;4.448;2022-12-07T04:45:03;6.20;99.90
25949;DHT22;13961;51.178;4.448;2022-12-07T04:48:01;6.10;99.90
25949;DHT22;13961;51.178;4.448;2022-12-07T04:50:26;6.30;99.90
25949;DHT22;13961;51.178;4.448;2022-12-07T04:52:53;6.50;99.90
25949;DHT22;13961;51.178;4.448;2022-12-07T04:55:34;6.40;99.90
25949;DHT22;13961;51.178;4.448;2022-12-07T04:58:03;6.40;99.90
25949;DHT22;13961;51.178;4.448;2022-12-07T05:00:32;6.50;99.90
25949;DHT22;13961;51.178;4.448;2022-12-07T05:03:01;6.30;99.90
25949;DHT22;13961;51.178;4.448;2022-12-07T05:05:29;6.10;99.90
25949;DHT22;13961;51.178;4.448;2022-12-07T05:07:58;6.10;99.90
25949;DHT22;13961;51.178;4.448;2022-12-07T05:10:27;6.30;99.90
25949;DHT22;13961;51.178;4.448;2022-12-07T05:12:54;6.60;99.90
25949;DHT22;13961;51.178;4.448;2022-12-07T05:15:19;6.40;99.90
25949;DHT22;13961;51.178;4.448;2022-12-07T05:17:48;6.50;99.90
25949;DHT22;13961;51.178;4.448;2022-12-07T05:20:15;6.50;99.90
25949;DHT22;13961;51.178;4.448;2022-12-07T05:22:40;6.40;99.90
25949;DHT22;13961;51.178;4.448;2022-12-07T05:25:06;6.50;99.90
25949;DHT22;13961;51.178;4.448;2022-12-07T05:27:33;6.60;99.90
25949;DHT22;13961;51.178;4.448;2022-12-07T05:30:00;6.70;99.90
25949;DHT22;13961;51.178;4.448;2022-12-07T05:32:25;6.70;99.90
25949;DHT22;13961;51.178;4.448;2022-12-07T05:34:51;6.90;99.90
25949;DHT22;13961;51.178;4.448;2022-12-07T05:37:20;6.80;99.90
25949;DHT22;13961;51.178;4.448;2022-12-07T05:39:49;7.00;99.90
25949;DHT22;13961;51.178;4.448;2022-12-07T05:42:18;6.90;99.90
25949;DHT22;13961;51.178;4.448;2022-12-07T05:44:47;6.80;99.90
25949;DHT22;13961;51.178;4.448;2022-12-07T05:47:15;6.80;99.90
25949;DHT22;13961;51.178;4.448;2022-12-07T05:49:42;6.90;99.90
25949;DHT22;13961;51.178;4.448;2022-12-07T05:52:09;7.00;99.90
25949;DHT22;13961;51.178;4.448;2022-12-07T05:54:35;6.90;99.90
25949;DHT22;13961;51.178;4.448;2022-12-07T05:57:00;6.70;99.90
25949;DHT22;13961;51.178;4.448;2022-12-07T05:59:29;6.90;99.90
25949;DHT22;13961;51.178;4.448;2022-12-07T06:02:00;7.00;99.90
25949;DHT22;13961;51.178;4.448;2022-12-07T06:04:31;6.90;99.90
25949;DHT22;13961;51.178;4.448;2022-12-07T06:06:59;6.80;99.90
25949;DHT22;13961;51.178;4.448;2022-12-07T06:09:26;7.10;99.90
25949;DHT22;13961;51.178;4.448;2022-12-07T06:11:56;6.90;99.90
25949;DHT22;13961;51.178;4.448;2022-12-07T06:14:40;6.50;99.90
25949;DHT22;13961;51.178;4.448;2022-12-07T06:17:09;6.70;99.90
25949;DHT22;13961;51.178;4.448;2022-12-07T06:19:36;6.70;99.90
25949;DHT22;13961;51.178;4.448;2022-12-07T06:22:03;7.00;99.90
25949;DHT22;13961;51.178;4.448;2022-12-07T06:24:31;6.80;99.90
25949;DHT22;13961;51.178;4.448;2022-12-07T06:26:58;6.60;99.90
25949;DHT22;13961;51.178;4.448;2022-12-07T06:29:24;6.70;99.90
25949;DHT22;13961;51.178;4.448;2022-12-07T06:31:49;6.50;99.90
25949;DHT22;13961;51.178;4.448;2022-12-07T06:34:18;6.40;99.90
25949;DHT22;13961;51.178;4.448;2022-12-07T06:36:44;6.60;99.90
25949;DHT22;13961;51.178;4.448;2022-12-07T06:39:11;6.60;99.90
25949;DHT22;13961;51.178;4.448;2022-12-07T06:41:37;6.70;99.90
25949;DHT22;13961;51.178;4.448;2022-12-07T06:44:09;6.70;99.90
25949;DHT22;13961;51.178;4.448;2022-12-07T06:46:36;6.90;99.90
25949;DHT22;13961;51.178;4.448;2022-12-07T06:49:03;7.00;99.90
25949;DHT22;13961;51.178;4.448;2022-12-07T06:51:29;7.00;99.90
25949;DHT22;13961;51.178;4.448;2022-12-07T06:53:55;6.90;99.90
25949;DHT22;13961;51.178;4.448;2022-12-07T06:56:22;6.80;99.90
25949;DHT22;13961;51.178;4.448;2022-12-07T06:58:49;6.80;99.90
25949;DHT22;13961;51.178;4.448;2022-12-07T07:01:17;6.70;99.90
25949;DHT22;13961;51.178;4.448;2022-12-07T07:03:45;6.80;99.90
25949;DHT22;13961;51.178;4.448;2022-12-07T07:06:12;6.50;99.90
25949;DHT22;13961;51.178;4.448;2022-12-07T07:08:38;6.60;99.90
25949;DHT22;13961;51.178;4.448;2022-12-07T07:11:04;6.60;99.90
25949;DHT22;13961;51.178;4.448;2022-12-07T07:13:30;6.40;99.90
25949;DHT22;13961;51.178;4.448;2022-12-07T07:15:56;6.40;99.90
25949;DHT22;13961;51.178;4.448;2022-12-07T07:18:22;6.10;99.90
25949;DHT22;13961;51.178;4.448;2022-12-07T07:20:50;6.00;99.90
25949;DHT22;13961;51.178;4.448;2022-12-07T07:23:16;6.30;99.90
25949;DHT22;13961;51.178;4.448;2022-12-07T07:25:42;6.20;99.90
25949;DHT22;13961;51.178;4.448;2022-12-07T07:28:09;6.20;99.90
25949;DHT22;13961;51.178;4.448;2022-12-07T07:30:35;6.40;99.90
25949;DHT22;13961;51.178;4.448;2022-12-07T07:33:02;6.30;99.90
25949;DHT22;13961;51.178;4.448;2022-12-07T07:35:29;6.10;99.90
25949;DHT22;13961;51.178;4.448;2022-12-07T07:37:55;6.10;99.90
25949;DHT22;13961;51.178;4.448;2022-12-07T07:40:25;6.20;99.90
25949;DHT22;13961;51.178;4.448;2022-12-07T07:42:52;6.30;99.90
25949;DHT22;13961;51.178;4.448;2022-12-07T07:45:19;6.10;99.90
25949;DHT22;13961;51.178;4.448;2022-12-07T07:47:45;6.10;99.90
25949;DHT22;13961;51.178;4.448;2022-12-07T07:50:12;6.10;99.90
25949;DHT22;13961;51.178;4.448;2022-12-07T07:52:38;6.10;99.90
25949;DHT22;13961;51.178;4.448;2022-12-07T07:55:05;6.10;99.90
25949;DHT22;13961;51.178;4.448;2022-12-07T07:57:34;6.10;99.90
25949;DHT22;13961;51.178;4.448;2022-12-07T08:00:00;6.40;99.90
25949;DHT22;13961;51.178;4.448;2022-12-07T08:02:26;6.10;99.90
25949;DHT22;13961;51.178;4.448;2022-12-07T08:04:54;6.40;99.90
25949;DHT22;13961;51.178;4.448;2022-12-07T08:07:20;6.20;99.90
25949;DHT22;13961;51.178;4.448;2022-12-07T08:09:46;6.30;99.90
25949;DHT22;13961;51.178;4.448;2022-12-07T08:12:13;6.50;99.90
25949;DHT22;13961;51.178;4.448;2022-12-07T08:14:40;6.70;99.90
25949;DHT22;13961;51.178;4.448;2022-12-07T08:17:07;6.50;99.90
25949;DHT22;13961;51.178;4.448;2022-12-07T08:19:34;6.50;99.90
25949;DHT22;13961;51.178;4.448;2022-12-07T08:22:00;6.60;99.90
25949;DHT22;13961;51.178;4.448;2022-12-07T08:24:26;7.00;99.90
25949;DHT22;13961;51.178;4.448;2022-12-07T08:26:54;7.20;99.90
25949;DHT22;13961;51.178;4.448;2022-12-07T08:29:23;7.10;99.90
25949;DHT22;13961;51.178;4.448;2022-12-07T08:31:51;6.90;99.90
25949;DHT22;13961;51.178;4.448;2022-12-07T08:34:19;7.10;99.90
25949;DHT22;13961;51.178;4.448;2022-12-07T08:36:48;7.10;99.90
25949;DHT22;13961;51.178;4.448;2022-12-07T08:39:17;6.70;99.90
25949;DHT22;13961;51.178;4.448;2022-12-07T08:41:45;6.70;99.90
25949;DHT22;13961;51.178;4.448;2022-12-07T08:44:11;6.80;99.90
25949;DHT22;13961;51.178;4.448;2022-12-07T08:46:47;6.70;99.90
25949;DHT22;13961;51.178;4.448;2022-12-07T08:49:19;6.30;99.90
25949;DHT22;13961;51.178;4.448;2022-12-07T08:51:46;6.40;99.90
25949;DHT22;13961;51.178;4.448;2022-12-07T08:54:14;6.60;99.90
25949;DHT22;13961;51.178;4.448;2022-12-07T08:56:42;6.70;99.90
25949;DHT22;13961;51.178;4.448;2022-12-07T08:59:09;6.80;99.90
25949;DHT22;13961;51.178;4.448;2022-12-07T09:01:35;7.00;99.90
25949;DHT22;13961;51.178;4.448;2022-12-07T09:04:02;7.00;99.90
25949;DHT22;13961;51.178;4.448;2022-12-07T09:06:29;6.90;99.90
25949;DHT22;13961;51.178;4.448;2022-12-07T09:08:59;7.00;99.90
25949;DHT22;13961;51.178;4.448;2022-12-07T09:11:26;7.20;99.90
25949;DHT22;13961;51.178;4.448;2022-12-07T09:13:52;7.60;99.90
25949;DHT22;13961;51.178;4.448;2022-12-07T09:16:17;7.50;99.90
25949;DHT22;13961;51.178;4.448;2022-12-07T09:18:45;7.60;99.90
25949;DHT22;13961;51.178;4.448;2022-12-07T09:21:12;7.60;99.90
25949;DHT22;13961;51.178;4.448;2022-12-07T09:23:38;7.60;99.90
25949;DHT22;13961;51.178;4.448;2022-12-07T09:26:07;7.40;99.90
25949;DHT22;13961;51.178;4.448;2022-12-07T09:28:36;7.20;99.90
25949;DHT22;13961;51.178;4.448;2022-12-07T09:31:05;7.10;99.90
25949;DHT22;13961;51.178;4.448;2022-12-07T09:33:31;7.40;99.90
25949;DHT22;13961;51.178;4.448;2022-12-07T09:36:01;7.20;99.90
25949;DHT22;13961;51.178;4.448;2022-12-07T09:38:29;7.40;99.90
25949;DHT22;13961;51.178;4.448;2022-12-07T09:41:07;7.70;99.90
25949;DHT22;13961;51.178;4.448;2022-12-07T09:43:36;8.20;99.90
25949;DHT22;13961;51.178;4.448;2022-12-07T09:46:05;8.40;99.90
25949;DHT22;13961;51.178;4.448;2022-12-07T09:48:37;8.60;99.90
25949;DHT22;13961;51.178;4.448;2022-12-07T09:51:25;8.60;99.90
25949;DHT22;13961;51.178;4.448;2022-12-07T09:53:53;8.50;99.90
25949;DHT22;13961;51.178;4.448;2022-12-07T09:56:20;8.60;99.90
25949;DHT22;13961;51.178;4.448;2022-12-07T09:59:00;8.70;99.90
25949;DHT22;13961;51.178;4.448;2022-12-07T10:01:33;8.40;99.90
25949;DHT22;13961;51.178;4.448;2022-12-07T10:04:15;8.10;99.90
25949;DHT22;13961;51.178;4.448;2022-12-07T10:06:42;8.00;99.90
25949;DHT22;13961;51.178;4.448;2022-12-07T10:09:15;8.20;99.90
25949;DHT22;13961;51.178;4.448;2022-12-07T10:14:28;8.00;99.90
25949;DHT22;13961;51.178;4.448;2022-12-07T10:16:55;8.20;99.90
25949;DHT22;13961;51.178;4.448;2022-12-07T10:19:31;7.90;99.90
25949;DHT22;13961;51.178;4.448;2022-12-07T10:24:30;8.30;99.90
25949;DHT22;13961;51.178;4.448;2022-12-07T10:26:56;8.40;99.90
25949;DHT22;13961;51.178;4.448;2022-12-07T10:32:04;8.20;99.90
25949;DHT22;13961;51.178;4.448;2022-12-07T10:34:33;7.90;99.90
25949;DHT22;13961;51.178;4.448;2022-12-07T10:37:19;8.10;99.90
25949;DHT22;13961;51.178;4.448;2022-12-07T10:39:51;8.10;99.90
25949;DHT22;13961;51.178;4.448;2022-12-07T10:42:22;8.10;99.90
25949;DHT22;13961;51.178;4.448;2022-12-07T10:44:50;8.10;99.90
25949;DHT22;13961;51.178;4.448;2022-12-07T11:12:47;8.40;99.90
25949;DHT22;13961;51.178;4.448;2022-12-07T11:20:52;8.50;99.90
25949;DHT22;13961;51.178;4.448;2022-12-07T11:26:40;8.80;99.90
25949;DHT22;13961;51.178;4.448;2022-12-07T11:38:10;8.70;99.90
25949;DHT22;13961;51.178;4.448;2022-12-07T11:40:38;8.90;99.90
25949;DHT22;13961;51.178;4.448;2022-12-07T11:45:39;8.60;99.90
25949;DHT22;13961;51.178;4.448;2022-12-07T11:48:17;8.70;99.90
25949;DHT22;13961;51.178;4.448;2022-12-07T11:50:56;8.80;99.90
25949;DHT22;13961;51.178;4.448;2022-12-07T11:53:25;9.20;99.90
25949;DHT22;13961;51.178;4.448;2022-12-07T11:56:04;9.20;99.90
25949;DHT22;13961;51.178;4.448;2022-12-07T12:06:28;9.60;99.90
25949;DHT22;13961;51.178;4.448;2022-12-07T12:09:06;9.40;99.90
25949;DHT22;13961;51.178;4.448;2022-12-07T12:14:54;9.10;99.90
25949;DHT22;13961;51.178;4.448;2022-12-07T12:17:38;9.10;99.90
25949;DHT22;13961;51.178;4.448;2022-12-07T12:20:13;9.10;99.90
25949;DHT22;13961;51.178;4.448;2022-12-07T12:23:05;8.80;99.90
25949;DHT22;13961;51.178;4.448;2022-12-07T12:25:44;8.70;99.90
25949;DHT22;13961;51.178;4.448;2022-12-07T12:33:31;8.00;99.90
25949;DHT22;13961;51.178;4.448;2022-12-07T12:54:24;8.00;99.90
25949;DHT22;13961;51.178;4.448;2022-12-07T13:02:38;8.60;99.90
25949;DHT22;13961;51.178;4.448;2022-12-07T13:07:58;8.70;99.90
25949;DHT22;13961;51.178;4.448;2022-12-07T13:18:04;8.80;99.90
25949;DHT22;13961;51.178;4.448;2022-12-07T13:20:52;8.90;99.90
25949;DHT22;13961;51.178;4.448;2022-12-07T13:23:21;8.80;99.90
25949;DHT22;13961;51.178;4.448;2022-12-07T13:28:45;8.50;99.90
25949;DHT22;13961;51.178;4.448;2022-12-07T13:33:37;8.40;99.90
25949;DHT22;13961;51.178;4.448;2022-12-07T13:36:14;8.70;99.90
25949;DHT22;13961;51.178;4.448;2022-12-07T13:41:42;8.50;99.90
25949;DHT22;13961;51.178;4.448;2022-12-07T13:44:13;8.30;99.90
25949;DHT22;13961;51.178;4.448;2022-12-07T13:49:52;7.90;99.90
25949;DHT22;13961;51.178;4.448;2022-12-07T13:57:32;7.90;99.90
25949;DHT22;13961;51.178;4.448;2022-12-07T14:00:15;7.90;99.90
25949;DHT22;13961;51.178;4.448;2022-12-07T14:05:45;8.20;99.90
25949;DHT22;13961;51.178;4.448;2022-12-07T14:10:37;7.90;99.90
25949;DHT22;13961;51.178;4.448;2022-12-07T14:15:51;7.70;99.90
25949;DHT22;13961;51.178;4.448;2022-12-07T14:18:37;7.90;99.90
25949;DHT22;13961;51.178;4.448;2022-12-07T14:23:37;8.00;99.90
25949;DHT22;13961;51.178;4.448;2022-12-07T14:26:20;8.00;99.90
25949;DHT22;13961;51.178;4.448;2022-12-07T14:28:47;7.70;99.90
25949;DHT22;13961;51.178;4.448;2022-12-07T14:31:19;7.60;99.90
25949;DHT22;13961;51.178;4.448;2022-12-07T14:33:46;7.70;99.90
25949;DHT22;13961;51.178;4.448;2022-12-07T14:36:13;7.60;99.90
25949;DHT22;13961;51.178;4.448;2022-12-07T14:38:39;7.60;99.90
25949;DHT22;13961;51.178;4.448;2022-12-07T14:41:12;7.80;99.90
25949;DHT22;13961;51.178;4.448;2022-12-07T14:43:57;7.80;99.90
25949;DHT22;13961;51.178;4.448;2022-12-07T14:46:24;7.90;99.90
25949;DHT22;13961;51.178;4.448;2022-12-07T14:48:53;8.00;99.90
25949;DHT22;13961;51.178;4.448;2022-12-07T14:51:19;7.50;99.90
25949;DHT22;13961;51.178;4.448;2022-12-07T14:53:50;7.40;99.90
25949;DHT22;13961;51.178;4.448;2022-12-07T14:56:18;7.20;99.90
25949;DHT22;13961;51.178;4.448;2022-12-07T14:58:44;7.20;99.90
25949;DHT22;13961;51.178;4.448;2022-12-07T15:01:09;7.10;99.90
25949;DHT22;13961;51.178;4.448;2022-12-07T15:03:35;7.30;99.90
25949;DHT22;13961;51.178;4.448;2022-12-07T15:06:04;7.40;99.90
25949;DHT22;13961;51.178;4.448;2022-12-07T15:08:29;7.20;99.90
25949;DHT22;13961;51.178;4.448;2022-12-07T15:10:55;7.20;99.90
25949;DHT22;13961;51.178;4.448;2022-12-07T15:13:22;7.30;99.90
25949;DHT22;13961;51.178;4.448;2022-12-07T15:16:10;7.00;99.90
25949;DHT22;13961;51.178;4.448;2022-12-07T15:18:37;7.20;99.90
25949;DHT22;13961;51.178;4.448;2022-12-07T15:21:02;7.10;99.90
25949;DHT22;13961;51.178;4.448;2022-12-07T15:23:31;6.80;99.90
25949;DHT22;13961;51.178;4.448;2022-12-07T15:25:57;6.70;99.90
25949;DHT22;13961;51.178;4.448;2022-12-07T15:28:23;6.70;99.90
25949;DHT22;13961;51.178;4.448;2022-12-07T15:30:51;6.70;99.90
25949;DHT22;13961;51.178;4.448;2022-12-07T15:33:16;7.00;99.90
25949;DHT22;13961;51.178;4.448;2022-12-07T15:35:44;7.00;99.90
25949;DHT22;13961;51.178;4.448;2022-12-07T15:38:10;6.70;99.90
25949;DHT22;13961;51.178;4.448;2022-12-07T15:40:36;6.60;99.90
25949;DHT22;13961;51.178;4.448;2022-12-07T15:43:02;6.90;99.90
25949;DHT22;13961;51.178;4.448;2022-12-07T15:45:28;6.90;99.90
25949;DHT22;13961;51.178;4.448;2022-12-07T15:47:55;6.60;99.90
25949;DHT22;13961;51.178;4.448;2022-12-07T15:50:23;6.70;99.90
25949;DHT22;13961;51.178;4.448;2022-12-07T15:52:51;6.40;99.90
25949;DHT22;13961;51.178;4.448;2022-12-07T15:55:22;6.80;99.90
25949;DHT22;13961;51.178;4.448;2022-12-07T15:57:48;6.60;99.90
25949;DHT22;13961;51.178;4.448;2022-12-07T16:00:15;6.90;99.90
25949;DHT22;13961;51.178;4.448;2022-12-07T16:02:40;7.00;99.90
25949;DHT22;13961;51.178;4.448;2022-12-07T16:05:06;6.90;99.90
25949;DHT22;13961;51.178;4.448;2022-12-07T16:07:32;6.90;99.90
25949;DHT22;13961;51.178;4.448;2022-12-07T16:09:57;6.90;99.90
25949;DHT22;13961;51.178;4.448;2022-12-07T16:12:23;6.90;99.90
25949;DHT22;13961;51.178;4.448;2022-12-07T16:14:56;7.00;99.90
25949;DHT22;13961;51.178;4.448;2022-12-07T16:17:25;7.10;99.90
25949;DHT22;13961;51.178;4.448;2022-12-07T16:19:50;7.50;99.90
25949;DHT22;13961;51.178;4.448;2022-12-07T16:22:19;7.60;99.90
25949;DHT22;13961;51.178;4.448;2022-12-07T16:24:45;7.50;99.90
25949;DHT22;13961;51.178;4.448;2022-12-07T16:27:11;7.60;99.90
25949;DHT22;13961;51.178;4.448;2022-12-07T16:29:37;7.70;99.90
25949;DHT22;13961;51.178;4.448;2022-12-07T16:32:04;7.60;99.90
25949;DHT22;13961;51.178;4.448;2022-12-07T16:34:29;7.30;99.90
25949;DHT22;13961;51.178;4.448;2022-12-07T16:37:02;7.50;99.90
25949;DHT22;13961;51.178;4.448;2022-12-07T16:39:27;7.30;99.90
25949;DHT22;13961;51.178;4.448;2022-12-07T16:41:59;7.20;99.90
25949;DHT22;13961;51.178;4.448;2022-12-07T16:44:27;7.10;99.90
25949;DHT22;13961;51.178;4.448;2022-12-07T16:46:54;7.20;99.90
25949;DHT22;13961;51.178;4.448;2022-12-07T16:49:20;7.30;99.90
25949;DHT22;13961;51.178;4.448;2022-12-07T16:51:46;7.40;99.90
25949;DHT22;13961;51.178;4.448;2022-12-07T16:54:14;7.30;99.90
25949;DHT22;13961;51.178;4.448;2022-12-07T16:56:40;7.10;99.90
25949;DHT22;13961;51.178;4.448;2022-12-07T16:59:05;7.20;99.90
25949;DHT22;13961;51.178;4.448;2022-12-07T17:01:32;7.00;99.90
25949;DHT22;13961;51.178;4.448;2022-12-07T17:04:00;7.00;99.90
25949;DHT22;13961;51.178;4.448;2022-12-07T17:06:27;7.00;99.90
25949;DHT22;13961;51.178;4.448;2022-12-07T17:08:54;7.30;99.90
25949;DHT22;13961;51.178;4.448;2022-12-07T17:11:28;7.30;99.90
25949;DHT22;13961;51.178;4.448;2022-12-07T17:13:58;7.30;99.90
25949;DHT22;13961;51.178;4.448;2022-12-07T17:16:42;7.40;99.90
25949;DHT22;13961;51.178;4.448;2022-12-07T17:19:10;7.40;99.90
25949;DHT22;13961;51.178;4.448;2022-12-07T17:21:36;7.70;99.90
25949;DHT22;13961;51.178;4.448;2022-12-07T17:24:05;7.30;99.90
25949;DHT22;13961;51.178;4.448;2022-12-07T17:26:32;7.30;99.90
25949;DHT22;13961;51.178;4.448;2022-12-07T17:28:58;7.40;99.90
25949;DHT22;13961;51.178;4.448;2022-12-07T17:31:25;7.30;99.90
25949;DHT22;13961;51.178;4.448;2022-12-07T17:33:50;7.10;99.90
25949;DHT22;13961;51.178;4.448;2022-12-07T17:36:20;7.20;99.90
25949;DHT22;13961;51.178;4.448;2022-12-07T17:38:48;7.10;99.90
25949;DHT22;13961;51.178;4.448;2022-12-07T17:41:23;7.30;99.90
25949;DHT22;13961;51.178;4.448;2022-12-07T17:44:15;7.30;99.90
25949;DHT22;13961;51.178;4.448;2022-12-07T17:46:43;7.20;99.90
25949;DHT22;13961;51.178;4.448;2022-12-07T17:49:09;7.50;99.90
25949;DHT22;13961;51.178;4.448;2022-12-07T17:51:34;7.20;99.90
25949;DHT22;13961;51.178;4.448;2022-12-07T17:54:21;7.30;99.90
25949;DHT22;13961;51.178;4.448;2022-12-07T17:56:48;7.60;99.90
25949;DHT22;13961;51.178;4.448;2022-12-07T17:59:16;7.30;99.90
25949;DHT22;13961;51.178;4.448;2022-12-07T18:01:43;7.40;99.90
25949;DHT22;13961;51.178;4.448;2022-12-07T18:04:09;7.20;99.90
25949;DHT22;13961;51.178;4.448;2022-12-07T18:06:36;7.10;99.90
25949;DHT22;13961;51.178;4.448;2022-12-07T18:09:03;7.10;99.90
25949;DHT22;13961;51.178;4.448;2022-12-07T18:11:31;7.30;99.90
25949;DHT22;13961;51.178;4.448;2022-12-07T18:13:59;7.20;99.90
25949;DHT22;13961;51.178;4.448;2022-12-07T18:16:27;7.20;99.90
25949;DHT22;13961;51.178;4.448;2022-12-07T18:18:58;7.50;99.90
25949;DHT22;13961;51.178;4.448;2022-12-07T18:21:28;7.10;99.90
25949;DHT22;13961;51.178;4.448;2022-12-07T18:23:59;7.10;99.90
25949;DHT22;13961;51.178;4.448;2022-12-07T18:26:28;7.20;99.90
25949;DHT22;13961;51.178;4.448;2022-12-07T18:28:54;7.20;99.90
25949;DHT22;13961;51.178;4.448;2022-12-07T18:31:20;7.10;99.90
25949;DHT22;13961;51.178;4.448;2022-12-07T18:33:47;7.50;99.90
25949;DHT22;13961;51.178;4.448;2022-12-07T18:36:15;7.50;99.90